»·PEaware :: FJS1399 KAWO-KPDX

FJS1399 :: KAWO-KPDX

FLIGHT INFORMATION

Flight Status: Arrived
Operator: Unknown
More flights by this operator :: More flights under this callsign
Pilot: David C. (16084)
Aircraft: BOMBARDIER BD-100 CHALLENGER 300
(CL30)
More flights by this aircraft type
Origin: KAWO Arlington Mun
United States
Destination: KPDX Portland Intl
United States
More flights between these airports :: More routes between these airports
Route: BUWZO KRATR2
File this flight plan on PilotEdge
Remarks:
Altitude:
(Current/Filed)
22,000ft
Speed:
(Current/Filed)
413kts
Departed: 26-Mar-18 09:14 AM
Arrived: 26-Mar-18 09:49 AM
Distance/Time
Traveled:
155nm/0:34
Distance/Time
To Go:
Arrived

Flight Plot

Page will automatically refresh every two minutes.

Flight plan parsing failed; only flown route is shown


Map Options




Map Legend


Flown Route
Filed Route
Departure Airport
Arrival Airport
Navaid (VOR, NDB)
Fix

Horizontal Profiles

Position Reports

Time Latitude Longitude Heading Altitude Ground
Speed
26-Mar-18 08:21 48.160064 -122.152730 270 147ft 0kts
26-Mar-18 08:22 48.160064 -122.152730 270 147ft 0kts
26-Mar-18 08:23 48.160064 -122.152730 270 147ft 0kts
26-Mar-18 08:24 48.160064 -122.152730 270 147ft 0kts
26-Mar-18 08:25 48.160064 -122.152730 270 147ft 0kts
26-Mar-18 08:26 48.160064 -122.152730 270 147ft 0kts
26-Mar-18 08:27 48.160064 -122.152730 270 147ft 0kts
26-Mar-18 08:28 48.160064 -122.152730 270 147ft 0kts
26-Mar-18 08:29 48.160064 -122.152730 270 147ft 0kts
26-Mar-18 08:30 48.160064 -122.152730 270 147ft 0kts
26-Mar-18 08:31 48.160064 -122.152730 270 147ft 0kts
26-Mar-18 08:32 48.160064 -122.152730 270 147ft 0kts
26-Mar-18 08:33 48.160064 -122.152730 270 147ft 0kts
26-Mar-18 08:34 48.160064 -122.152730 270 147ft 0kts
26-Mar-18 08:35 48.160064 -122.152730 270 147ft 0kts
26-Mar-18 08:36 48.160064 -122.152730 270 147ft 0kts
26-Mar-18 08:37 48.160064 -122.152730 270 147ft 0kts
26-Mar-18 08:38 48.160064 -122.152730 270 147ft 0kts
26-Mar-18 08:39 48.160064 -122.152730 270 147ft 0kts
26-Mar-18 08:40 48.160064 -122.152730 270 147ft 0kts
26-Mar-18 08:41 48.160064 -122.152730 270 147ft 0kts
26-Mar-18 08:42 48.160064 -122.152730 270 147ft 0kts
26-Mar-18 08:43 48.160064 -122.152730 270 147ft 0kts
26-Mar-18 08:44 48.160064 -122.152730 270 147ft 0kts
26-Mar-18 08:45 48.160064 -122.152730 270 147ft 0kts
26-Mar-18 08:46 48.160064 -122.152730 270 147ft 0kts
26-Mar-18 08:47 48.160064 -122.152730 270 147ft 0kts
26-Mar-18 08:48 48.160064 -122.152730 270 147ft 0kts
26-Mar-18 08:49 48.160064 -122.152730 270 147ft 0kts
26-Mar-18 08:50 48.160064 -122.152730 270 147ft 0kts
26-Mar-18 08:51 48.160064 -122.152730 270 147ft 0kts
26-Mar-18 08:52 48.160064 -122.152730 270 147ft 0kts
26-Mar-18 08:53 48.160064 -122.152730 270 147ft 0kts
26-Mar-18 08:54 48.160064 -122.152730 270 147ft 0kts
26-Mar-18 08:55 48.160064 -122.152730 270 147ft 0kts
26-Mar-18 08:56 48.160064 -122.152730 270 147ft 0kts
26-Mar-18 08:57 48.160064 -122.152730 270 147ft 0kts
26-Mar-18 09:13 47.916473 -122.204916 179 5945ft 228kts
26-Mar-18 09:15 47.822761 -122.230336 195 8972ft 243kts
26-Mar-18 09:16 47.755155 -122.248900 195 12223ft 270kts
26-Mar-18 09:17 47.679210 -122.264433 189 14991ft 295kts
26-Mar-18 09:18 47.604460 -122.268861 190 16472ft 295kts
26-Mar-18 09:19 47.520121 -122.274122 191 20018ft 325kts
26-Mar-18 09:20 47.426322 -122.280205 190 22273ft 393kts
26-Mar-18 09:21 47.305262 -122.287739 189 22264ft 456kts
26-Mar-18 09:22 47.182542 -122.295294 189 22278ft 454kts
26-Mar-18 09:23 47.057579 -122.303057 189 22279ft 454kts
26-Mar-18 09:24 46.932271 -122.309342 185 22284ft 460kts
26-Mar-18 09:25 46.810307 -122.309554 185 22278ft 461kts
26-Mar-18 09:26 46.684618 -122.309557 185 22286ft 453kts
26-Mar-18 09:27 46.563275 -122.309531 185 22283ft 430kts
26-Mar-18 09:28 46.447835 -122.309521 186 19973ft 406kts
26-Mar-18 09:29 46.343043 -122.309481 186 17375ft 358kts
26-Mar-18 09:30 46.250907 -122.317670 205 15348ft 311kts
26-Mar-18 09:31 46.174848 -122.357063 207 13796ft 285kts
26-Mar-18 09:32 46.102683 -122.396227 207 12335ft 276kts
26-Mar-18 09:33 46.033399 -122.433440 206 10914ft 262kts
26-Mar-18 09:34 45.963921 -122.470795 205 9523ft 284kts
26-Mar-18 09:35 45.901164 -122.529099 224 8081ft 268kts
26-Mar-18 09:36 45.850407 -122.591538 224 6772ft 238kts
26-Mar-18 09:37 45.801974 -122.652001 221 5561ft 236kts
26-Mar-18 09:38 45.758205 -122.718241 241 4986ft 232kts
26-Mar-18 09:39 45.770899 -122.801618 291 4992ft 218kts
26-Mar-18 09:40 45.777556 -122.882193 233 3957ft 185kts
26-Mar-18 09:41 45.734716 -122.882760 145 3024ft 159kts
26-Mar-18 09:42 45.698564 -122.848259 145 2991ft 155kts
26-Mar-18 09:43 45.674579 -122.800958 119 2987ft 156kts
26-Mar-18 09:44 45.653824 -122.747354 119 2419ft 156kts
26-Mar-18 09:45 45.633081 -122.693873 119 1596ft 151kts
26-Mar-18 09:46 45.614841 -122.646937 119 853ft 120kts
26-Mar-18 09:47 45.599333 -122.607151 119 254ft 115kts
26-Mar-18 09:48 45.587573 -122.577032 124 36ft 28kts
26-Mar-18 09:49 45.586274 -122.577033 298 36ft 13kts
26-Mar-18 09:50 45.586704 -122.580490 297 36ft 10kts
26-Mar-18 09:51 45.587408 -122.584048 283 36ft 0kts
26-Mar-18 09:52 45.587408 -122.584048 283 36ft 0kts

Navigation Log

Ident Type
Flight plan parsing failed, navigation log unavailable